Aviation Digital Data Service (ADDS)

Output produced by METARs form (1911 UTC 24 April 2017)
found at http://aviationweather.gov/adds/metars/
 
KJST 241758Z 2418/2518 08007KT P6SM VCSH OVC070 
     FM242200 12010G17KT 6SM -RA OVC020 
     FM250300 09010KT 4SM -RA BR OVC015 
     FM250600 11009KT P6SM -RA OVC007